createdAt,value
2022-07-31T00:00:15.200Z,101223.50
2022-07-31T00:02:41.680Z,101230.50
2022-07-31T00:05:08.335Z,101230.66
2022-07-31T00:07:34.767Z,101228.78
2022-07-31T00:10:01.230Z,101227.31
2022-07-31T00:12:27.719Z,101228.00
2022-07-31T00:14:54.250Z,101221.47
2022-07-31T00:17:20.728Z,101222.84
2022-07-31T00:19:47.192Z,101225.59
2022-07-31T00:22:13.633Z,101213.19
2022-07-31T00:24:40.146Z,101212.13
2022-07-31T00:27:06.995Z,101222.53
2022-07-31T00:29:33.608Z,101219.66
2022-07-31T00:32:00.066Z,101223.22
2022-07-31T00:34:26.494Z,101217.94
2022-07-31T00:36:52.912Z,101210.81
2022-07-31T00:39:19.691Z,101211.34
2022-07-31T00:41:46.947Z,101206.72
2022-07-31T00:44:13.912Z,101218.34
2022-07-31T00:46:42.105Z,101204.09
2022-07-31T00:49:11.933Z,101206.59
2022-07-31T00:51:39.988Z,101203.88
2022-07-31T00:54:08.242Z,101202.31
2022-07-31T00:56:34.971Z,101210.41
2022-07-31T00:59:01.464Z,101200.13
2022-07-31T01:01:27.947Z,101203.78
2022-07-31T01:03:54.783Z,101206.97
2022-07-31T01:06:21.243Z,101201.09
2022-07-31T01:08:47.704Z,101207.28
2022-07-31T01:11:32.524Z,101211.69
2022-07-31T01:14:02.054Z,101210.34
2022-07-31T01:16:40.697Z,101209.50
2022-07-31T01:19:42.213Z,101211.81
2022-07-31T01:22:43.995Z,101214.13
2022-07-31T01:25:29.458Z,101211.78
2022-07-31T01:28:09.584Z,101221.19
2022-07-31T01:30:45.545Z,101223.19
2022-07-31T01:33:18.523Z,101213.88
2022-07-31T01:36:02.382Z,101215.34
2022-07-31T01:38:33.104Z,101211.06
2022-07-31T01:41:05.362Z,101214.06
2022-07-31T01:43:37.920Z,101212.91
2022-07-31T01:46:05.795Z,101206.63
2022-07-31T01:48:33.787Z,101213.72
2022-07-31T01:51:02.860Z,101212.59
2022-07-31T01:53:32.948Z,101202.88
2022-07-31T01:56:03.610Z,101216.34
2022-07-31T01:58:37.485Z,101211.22
2022-07-31T02:01:11.405Z,101208.41
2022-07-31T02:03:44.050Z,101213.53
2022-07-31T02:06:16.207Z,101209.97
2022-07-31T02:08:46.363Z,101211.75
2022-07-31T02:11:17.925Z,101225.34
2022-07-31T02:13:45.976Z,101221.41
2022-07-31T02:16:14.218Z,101214.56
2022-07-31T02:18:41.779Z,101209.25
2022-07-31T02:21:15.363Z,101206.13
2022-07-31T02:23:41.939Z,101203.91
2022-07-31T02:26:09.637Z,101204.22
2022-07-31T02:28:40.639Z,101204.13
2022-07-31T02:31:10.243Z,101195.31
2022-07-31T02:33:38.012Z,101191.22
2022-07-31T02:36:06.468Z,101191.13
2022-07-31T02:38:35.337Z,101191.63
2022-07-31T02:41:05.163Z,101190.78
2022-07-31T02:43:33.206Z,101190.47
2022-07-31T02:46:06.390Z,101193.50
2022-07-31T02:48:33.175Z,101195.66
2022-07-31T02:51:03.754Z,101196.41
2022-07-31T02:53:31.895Z,101192.50
2022-07-31T02:56:04.269Z,101185.81
2022-07-31T02:58:32.737Z,101192.09
2022-07-31T03:01:04.931Z,101187.59
2022-07-31T03:03:33.023Z,101182.59
2022-07-31T03:05:59.714Z,101184.28
2022-07-31T03:08:27.416Z,101185.41
2022-07-31T03:10:57.385Z,101179.03
2022-07-31T03:13:28.779Z,101188.16
2022-07-31T03:15:57.064Z,101190.66
2022-07-31T03:18:25.702Z,101182.28
2022-07-31T03:20:53.357Z,101188.31
2022-07-31T03:23:22.037Z,101187.06
2022-07-31T03:25:54.923Z,101186.66
2022-07-31T03:28:22.541Z,101187.28
2022-07-31T03:30:56.187Z,101183.22
2022-07-31T03:33:24.965Z,101188.63
2022-07-31T03:35:53.156Z,101188.63
2022-07-31T03:38:38.741Z,101185.06
2022-07-31T03:41:06.796Z,101191.41
2022-07-31T03:43:47.112Z,101189.81
2022-07-31T03:46:16.999Z,101200.25
2022-07-31T03:48:43.619Z,101201.09
2022-07-31T03:51:11.173Z,101192.03
2022-07-31T03:53:38.203Z,101192.22
2022-07-31T03:56:06.646Z,101195.88
2022-07-31T03:58:34.066Z,101196.22
2022-07-31T04:01:03.416Z,101191.94
2022-07-31T04:03:32.728Z,101193.59
2022-07-31T04:06:17.326Z,101186.53
2022-07-31T04:08:43.793Z,101194.50
2022-07-31T04:11:10.290Z,101195.06
2022-07-31T04:13:37.778Z,101203.28
2022-07-31T04:16:04.669Z,101199.25
2022-07-31T04:18:31.896Z,101201.16
2022-07-31T04:20:58.362Z,101206.41
2022-07-31T04:23:32.186Z,101201.22
2022-07-31T04:26:26.216Z,101198.63
2022-07-31T04:29:02.675Z,101194.91
2022-07-31T04:31:29.988Z,101198.84
2022-07-31T04:33:57.238Z,101194.06
2022-07-31T04:36:29.645Z,101192.91
2022-07-31T04:38:59.159Z,101195.81
2022-07-31T04:41:25.710Z,101204.66
2022-07-31T04:43:52.171Z,101210.78
2022-07-31T04:46:19.099Z,101209.84
2022-07-31T04:48:45.772Z,101213.00
2022-07-31T04:51:22.891Z,101203.00
2022-07-31T04:53:50.718Z,101202.00
2022-07-31T04:56:41.876Z,101198.97
2022-07-31T04:59:14.810Z,101204.63
2022-07-31T05:01:44.966Z,101205.50
2022-07-31T05:04:14.097Z,101194.31
2022-07-31T05:06:51.532Z,101192.41
2022-07-31T05:09:23.658Z,101197.78
2022-07-31T05:11:54.972Z,101198.69
2022-07-31T05:14:22.208Z,101200.97
2022-07-31T05:16:49.143Z,101201.56
2022-07-31T05:19:17.780Z,101212.03
2022-07-31T05:22:19.485Z,101207.66
2022-07-31T05:25:02.951Z,101212.09
2022-07-31T05:27:29.461Z,101207.59
2022-07-31T05:29:58.690Z,101208.03
2022-07-31T05:32:25.141Z,101213.75
2022-07-31T05:34:51.836Z,101213.72
2022-07-31T05:37:18.292Z,101208.78
2022-07-31T05:39:44.789Z,101211.03
2022-07-31T05:42:43.126Z,101215.72
2022-07-31T05:45:23.312Z,101220.56
2022-07-31T05:47:49.771Z,101219.84
2022-07-31T05:50:16.766Z,101216.22
2022-07-31T05:52:43.247Z,101218.72
2022-07-31T05:55:24.924Z,101229.63
2022-07-31T05:58:08.331Z,101227.09
2022-07-31T06:00:34.936Z,101229.47
2022-07-31T06:03:02.359Z,101227.16
2022-07-31T06:06:07.035Z,101226.47
2022-07-31T06:08:34.018Z,101228.78
2022-07-31T06:11:01.126Z,101224.00
2022-07-31T06:13:27.969Z,101223.47
2022-07-31T06:15:56.072Z,101220.03
2022-07-31T06:18:23.422Z,101224.47
2022-07-31T06:20:50.238Z,101215.72
2022-07-31T06:23:29.771Z,101212.63
2022-07-31T06:26:21.857Z,101221.28
2022-07-31T06:28:50.764Z,101219.06
2022-07-31T06:31:19.262Z,101216.03
2022-07-31T06:33:48.567Z,101216.06
2022-07-31T06:36:17.003Z,101212.38
2022-07-31T06:38:56.353Z,101224.53
2022-07-31T06:41:49.312Z,101218.09
2022-07-31T06:44:27.959Z,101219.78
2022-07-31T06:47:25.402Z,101226.56
2022-07-31T06:50:10.076Z,101225.16
2022-07-31T06:52:38.753Z,101215.41
2022-07-31T06:55:07.050Z,101223.75
2022-07-31T06:57:34.004Z,101222.56
2022-07-31T07:00:04.201Z,101223.84
2022-07-31T07:02:34.036Z,101218.72
2022-07-31T07:05:06.117Z,101228.72
2022-07-31T07:07:37.246Z,101216.59
2022-07-31T07:10:06.622Z,101216.22
2022-07-31T07:12:51.672Z,101215.50
2022-07-31T07:15:21.182Z,101212.91
2022-07-31T07:17:47.700Z,101219.34
2022-07-31T07:20:19.299Z,101214.09
2022-07-31T07:22:45.763Z,101215.03
2022-07-31T07:25:20.344Z,101210.13
2022-07-31T07:27:47.423Z,101202.72
2022-07-31T07:30:14.842Z,101204.53
2022-07-31T07:32:41.378Z,101194.41
2022-07-31T07:35:09.326Z,101197.22
2022-07-31T07:37:48.674Z,101190.25
2022-07-31T07:40:16.886Z,101202.00
2022-07-31T07:42:43.762Z,101189.66
2022-07-31T07:45:10.672Z,101184.03
2022-07-31T07:47:53.832Z,101178.00
2022-07-31T07:50:26.857Z,101179.22
2022-07-31T07:53:15.562Z,101160.63
2022-07-31T07:56:01.480Z,101166.88
2022-07-31T07:58:49.100Z,101170.94
2022-07-31T08:01:50.735Z,101167.41
2022-07-31T08:04:22.451Z,101167.13
2022-07-31T08:06:48.887Z,101171.81
2022-07-31T08:09:16.585Z,101160.84
2022-07-31T08:12:03.588Z,101162.28
2022-07-31T08:14:59.412Z,101169.28
2022-07-31T08:17:46.162Z,101164.38
2022-07-31T08:20:13.726Z,101172.06
2022-07-31T08:22:40.180Z,101164.75
2022-07-31T08:25:06.838Z,101154.75
2022-07-31T08:27:40.818Z,101160.22
2022-07-31T08:30:09.777Z,101160.13
2022-07-31T08:32:36.410Z,101162.09
2022-07-31T08:35:14.308Z,101156.81
2022-07-31T08:37:51.703Z,101154.38
2022-07-31T08:40:30.590Z,101145.78
2022-07-31T08:42:57.866Z,101148.63
2022-07-31T08:45:28.496Z,101147.84
2022-07-31T08:48:08.135Z,101148.28
2022-07-31T08:50:44.507Z,101154.88
2022-07-31T08:53:24.712Z,101145.38
2022-07-31T08:56:00.344Z,101150.53
2022-07-31T08:58:29.413Z,101144.72
2022-07-31T09:00:56.847Z,101147.91
2022-07-31T09:03:24.198Z,101144.91
2022-07-31T09:05:54.376Z,101142.19
2022-07-31T09:08:21.349Z,101143.31
2022-07-31T09:11:01.891Z,101141.19
2022-07-31T09:13:29.425Z,101131.88
2022-07-31T09:15:59.527Z,101128.53
2022-07-31T09:18:27.526Z,101133.88
2022-07-31T09:21:06.698Z,101137.88
2022-07-31T09:23:46.240Z,101137.72
2022-07-31T09:26:13.715Z,101128.16
2022-07-31T09:28:42.551Z,101130.00
2022-07-31T09:31:10.837Z,101132.09
2022-07-31T09:33:57.738Z,101132.22
2022-07-31T09:36:37.002Z,101120.19
2022-07-31T09:39:26.963Z,101121.19
2022-07-31T09:42:16.625Z,101120.09
2022-07-31T09:44:56.286Z,101122.84
2022-07-31T09:47:27.368Z,101125.81
2022-07-31T09:50:02.913Z,101120.19
2022-07-31T09:52:32.027Z,101119.00
2022-07-31T09:55:17.281Z,101119.13
2022-07-31T09:57:55.142Z,101120.81
2022-07-31T10:00:23.052Z,101114.50
2022-07-31T10:02:52.740Z,101103.28
2022-07-31T10:05:22.523Z,101109.06
2022-07-31T10:07:50.274Z,101112.34
2022-07-31T10:10:26.969Z,101103.44
2022-07-31T10:13:03.356Z,101110.50
2022-07-31T10:15:33.052Z,101109.25
2022-07-31T10:18:35.524Z,101107.97
2022-07-31T10:21:26.267Z,101108.38
2022-07-31T10:24:07.290Z,101103.41
2022-07-31T10:26:59.290Z,101099.41
2022-07-31T10:29:21.004Z,101099.50
2022-07-31T10:31:48.238Z,101096.94
2022-07-31T10:34:16.077Z,101081.44
2022-07-31T10:37:33.521Z,101091.25
2022-07-31T10:40:27.744Z,101087.31
2022-07-31T10:43:20.192Z,101084.09
2022-07-31T10:46:04.111Z,101093.94
2022-07-31T10:48:54.600Z,101086.78
2022-07-31T10:51:51.761Z,101087.88
2022-07-31T10:54:45.555Z,101087.63
2022-07-31T10:57:56.274Z,101078.03
2022-07-31T11:00:42.765Z,101071.78
2022-07-31T11:03:39.829Z,101083.38
2022-07-31T11:06:40.197Z,101073.66
2022-07-31T11:09:29.827Z,101082.88
2022-07-31T11:12:20.143Z,101077.63
2022-07-31T11:14:55.747Z,101077.78
2022-07-31T11:18:23.396Z,101074.00
2022-07-31T11:20:47.947Z,101053.09
2022-07-31T11:23:16.821Z,101056.31
2022-07-31T11:25:45.690Z,101062.47
2022-07-31T11:28:23.597Z,101071.22
2022-07-31T11:30:58.007Z,101067.88
2022-07-31T11:33:29.463Z,101059.00
2022-07-31T11:36:08.140Z,101059.28
2022-07-31T11:38:36.322Z,101052.69
2022-07-31T11:41:05.964Z,101048.84
2022-07-31T11:43:34.520Z,101056.28
2022-07-31T11:46:02.494Z,101046.38
2022-07-31T11:48:38.128Z,101052.47
2022-07-31T11:51:06.653Z,101046.50
2022-07-31T11:53:41.536Z,101053.38
2022-07-31T11:56:08.157Z,101051.69
2022-07-31T11:58:35.184Z,101044.41
2022-07-31T12:01:03.434Z,101048.41
2022-07-31T12:03:37.967Z,101047.81
2022-07-31T12:06:06.779Z,101039.63
2022-07-31T12:08:35.302Z,101033.78
2022-07-31T12:11:04.456Z,101039.41
2022-07-31T12:13:32.297Z,101041.59
2022-07-31T12:16:06.231Z,101028.16
2022-07-31T12:18:47.496Z,101028.69
2022-07-31T12:21:14.727Z,101026.34
2022-07-31T12:23:46.934Z,101013.84
2022-07-31T12:26:22.836Z,101010.16
2022-07-31T12:29:08.794Z,101008.91
2022-07-31T12:31:52.895Z,101004.41
2022-07-31T12:34:45.843Z,100999.41
2022-07-31T12:37:14.415Z,101000.66
2022-07-31T12:39:54.220Z,101005.53
2022-07-31T12:42:41.276Z,100999.88
2022-07-31T12:45:19.708Z,101000.22
2022-07-31T12:47:51.451Z,100996.91
2022-07-31T12:50:20.076Z,100997.22
2022-07-31T12:52:46.612Z,100996.47
2022-07-31T12:55:13.131Z,100992.03
2022-07-31T12:57:50.512Z,100987.94
2022-07-31T13:00:20.116Z,100986.72
2022-07-31T13:02:46.575Z,100980.13
2022-07-31T13:05:13.069Z,100980.56
2022-07-31T13:07:39.519Z,100971.09
2022-07-31T13:10:17.557Z,100967.81
2022-07-31T13:12:51.893Z,100979.38
2022-07-31T13:15:20.818Z,100970.25
2022-07-31T13:17:50.786Z,100958.34
2022-07-31T13:20:18.130Z,100955.47
2022-07-31T13:22:44.588Z,100953.41
2022-07-31T13:25:11.046Z,100956.31
2022-07-31T13:27:37.596Z,100954.22
2022-07-31T13:30:04.894Z,100948.03
2022-07-31T13:32:31.851Z,100948.03
2022-07-31T13:35:23.935Z,100947.53
2022-07-31T13:37:46.407Z,100951.31
2022-07-31T13:40:13.009Z,100944.66
2022-07-31T13:42:39.511Z,100938.03
2022-07-31T13:45:08.677Z,100939.31
2022-07-31T13:47:51.255Z,100938.09
2022-07-31T13:50:19.042Z,100927.44
2022-07-31T13:52:45.559Z,100927.84
2022-07-31T13:55:11.994Z,100921.28
2022-07-31T13:57:38.455Z,100914.22
2022-07-31T14:00:05.616Z,100915.09
2022-07-31T14:02:32.176Z,100908.38
2022-07-31T14:04:58.786Z,100909.09
2022-07-31T14:07:45.215Z,100897.97
2022-07-31T14:10:12.720Z,100907.47
2022-07-31T14:12:41.447Z,100899.63
2022-07-31T14:15:08.319Z,100900.88
2022-07-31T14:17:34.752Z,100889.59
2022-07-31T14:20:01.379Z,100890.41
2022-07-31T14:22:29.939Z,100893.44
2022-07-31T14:24:56.458Z,100891.19
2022-07-31T14:27:22.909Z,100889.09
2022-07-31T14:29:49.533Z,100891.94
2022-07-31T14:32:16.263Z,100892.34
2022-07-31T14:34:42.702Z,100890.44
2022-07-31T14:37:09.135Z,100887.50
2022-07-31T14:39:35.584Z,100880.69
2022-07-31T14:42:09.284Z,100875.19
2022-07-31T14:44:35.715Z,100877.41
2022-07-31T14:47:02.478Z,100870.13
2022-07-31T14:50:09.015Z,100870.00
2022-07-31T14:52:15.474Z,100873.53
2022-07-31T14:54:41.920Z,100877.19
2022-07-31T14:57:08.396Z,100881.63
2022-07-31T14:59:34.842Z,100880.00
2022-07-31T15:02:01.434Z,100880.78
2022-07-31T15:04:27.870Z,100880.31
2022-07-31T15:07:07.792Z,100883.09
2022-07-31T15:09:40.774Z,100881.00
2022-07-31T15:12:07.549Z,100886.81
2022-07-31T15:14:34.844Z,100882.75
2022-07-31T15:17:01.311Z,100880.06
2022-07-31T15:19:27.777Z,100885.25
2022-07-31T15:22:16.004Z,100876.47
2022-07-31T15:24:48.166Z,100870.63
2022-07-31T15:27:15.151Z,100865.09
2022-07-31T15:30:05.423Z,100871.03
2022-07-31T15:32:28.046Z,100870.53
2022-07-31T15:34:54.664Z,100868.41
2022-07-31T15:37:21.119Z,100860.47
2022-07-31T15:40:03.069Z,100853.47
2022-07-31T15:42:33.411Z,100858.91
2022-07-31T15:45:00.049Z,100857.94
2022-07-31T15:47:26.500Z,100854.94
2022-07-31T15:49:52.923Z,100859.34
2022-07-31T15:52:19.813Z,100856.63
2022-07-31T15:54:47.027Z,100860.16
2022-07-31T15:57:13.700Z,100862.63
2022-07-31T15:59:41.302Z,100868.88
2022-07-31T16:02:07.758Z,100866.84
2022-07-31T16:04:34.956Z,100858.88
2022-07-31T16:08:32.163Z,100853.47
2022-07-31T16:10:02.552Z,100849.28
2022-07-31T16:12:35.377Z,100858.91
2022-07-31T16:15:02.461Z,100855.72
2022-07-31T16:17:37.775Z,100844.69
2022-07-31T16:20:08.364Z,100847.94
2022-07-31T16:22:36.357Z,100851.16
2022-07-31T16:25:03.653Z,100846.69
2022-07-31T16:27:30.074Z,100843.41
2022-07-31T16:29:59.241Z,100847.97
2022-07-31T16:32:28.315Z,100847.19
2022-07-31T16:34:58.467Z,100831.22
2022-07-31T16:37:51.268Z,100839.91
2022-07-31T16:40:30.648Z,100824.66
2022-07-31T16:43:47.871Z,100828.78
2022-07-31T16:45:49.588Z,100829.69
2022-07-31T16:48:16.260Z,100827.75
2022-07-31T16:50:42.723Z,100826.09
2022-07-31T16:53:09.145Z,100827.31
2022-07-31T16:55:51.510Z,100819.50
2022-07-31T16:58:26.519Z,100826.50
2022-07-31T17:00:53.053Z,100830.19
2022-07-31T17:03:59.173Z,100822.78
2022-07-31T17:06:10.303Z,100829.38
2022-07-31T17:08:38.125Z,100828.16
2022-07-31T17:11:04.674Z,100821.56
2022-07-31T17:13:31.185Z,100818.66
2022-07-31T17:15:57.615Z,100820.34
2022-07-31T17:18:25.332Z,100817.44
2022-07-31T17:20:53.220Z,100819.06
2022-07-31T17:23:43.097Z,100815.38
2022-07-31T17:26:09.727Z,100817.41
2022-07-31T17:28:47.348Z,100813.31
2022-07-31T17:31:13.796Z,100817.00
2022-07-31T17:33:59.715Z,100814.16
2022-07-31T17:36:26.917Z,100820.34
2022-07-31T17:38:53.351Z,100818.66
2022-07-31T17:41:24.655Z,100814.16
2022-07-31T17:43:53.161Z,100817.44
2022-07-31T17:46:22.041Z,100812.09
2022-07-31T17:48:55.877Z,100814.56
2022-07-31T17:51:22.452Z,100812.09
2022-07-31T17:53:55.525Z,100811.28
2022-07-31T17:56:26.483Z,100812.91
2022-07-31T17:58:52.948Z,100810.44
2022-07-31T18:01:19.458Z,100811.25
2022-07-31T18:03:45.940Z,100803.84
2022-07-31T18:06:12.376Z,100814.09
2022-07-31T18:08:38.839Z,100812.03
2022-07-31T18:11:06.495Z,100812.84
2022-07-31T18:13:47.717Z,100820.25
2022-07-31T18:16:15.158Z,100814.88
2022-07-31T18:18:41.612Z,100816.94
2022-07-31T18:21:08.082Z,100819.38
2022-07-31T18:23:34.758Z,100816.06
2022-07-31T18:26:02.724Z,100813.59
2022-07-31T18:28:29.436Z,100816.00
2022-07-31T18:30:55.862Z,100817.16
2022-07-31T18:33:22.338Z,100817.97
2022-07-31T18:35:48.859Z,100820.84
2022-07-31T18:38:15.441Z,100814.63
2022-07-31T18:40:41.877Z,100815.41
2022-07-31T18:43:09.012Z,100814.13
2022-07-31T18:45:36.027Z,100824.34
2022-07-31T18:48:08.077Z,100814.47
2022-07-31T18:51:00.332Z,100814.34
2022-07-31T18:53:20.994Z,100818.84
2022-07-31T18:55:47.446Z,100820.03
2022-07-31T18:58:13.911Z,100827.44
2022-07-31T19:00:40.351Z,100822.09
2022-07-31T19:03:07.825Z,100818.75
2022-07-31T19:05:34.569Z,100821.56
2022-07-31T19:08:01.099Z,100823.53
2022-07-31T19:10:31.301Z,100823.47
2022-07-31T19:12:58.966Z,100832.41
2022-07-31T19:15:25.430Z,100825.41
2022-07-31T19:17:51.857Z,100820.47
2022-07-31T19:20:56.266Z,100824.44
2022-07-31T19:23:12.611Z,100826.41
2022-07-31T19:26:04.157Z,100836.16
2022-07-31T19:28:27.214Z,100823.78
2022-07-31T19:30:54.638Z,100828.50
2022-07-31T19:33:21.070Z,100828.53
2022-07-31T19:35:58.584Z,100837.47
2022-07-31T19:38:27.393Z,100833.47
2022-07-31T19:40:54.128Z,100831.94
2022-07-31T19:43:20.623Z,100832.66
2022-07-31T19:46:09.555Z,100833.69
2022-07-31T19:48:35.152Z,100826.38
2022-07-31T19:51:01.666Z,100835.44
2022-07-31T19:53:28.314Z,100832.84
2022-07-31T19:55:54.981Z,100824.94
2022-07-31T19:58:21.755Z,100831.88
2022-07-31T20:00:48.183Z,100829.47
2022-07-31T20:03:14.695Z,100827.13
2022-07-31T20:05:41.199Z,100825.47
2022-07-31T20:08:07.675Z,100818.50
2022-07-31T20:10:34.116Z,100822.41
2022-07-31T20:13:00.574Z,100827.56
2022-07-31T20:15:27.422Z,100824.09
2022-07-31T20:18:23.274Z,100819.28
2022-07-31T20:20:59.090Z,100816.94
2022-07-31T20:23:26.295Z,100807.81
2022-07-31T20:25:53.415Z,100814.00
2022-07-31T20:28:19.898Z,100814.84
2022-07-31T20:30:46.373Z,100816.38
2022-07-31T20:33:13.364Z,100803.00
2022-07-31T20:35:47.543Z,100808.69
2022-07-31T20:38:20.464Z,100809.47
2022-07-31T20:40:54.038Z,100808.66
2022-07-31T20:43:26.860Z,100815.22
2022-07-31T20:45:57.133Z,100812.47
2022-07-31T20:48:26.430Z,100803.00
2022-07-31T20:50:52.899Z,100815.16
2022-07-31T20:53:20.781Z,100807.44
2022-07-31T20:55:49.060Z,100808.34
2022-07-31T20:58:16.089Z,100799.53
2022-07-31T21:00:42.714Z,100793.47
2022-07-31T21:03:09.135Z,100789.41
2022-07-31T21:05:35.615Z,100791.66
2022-07-31T21:08:02.044Z,100793.03
2022-07-31T21:10:29.753Z,100792.44
2022-07-31T21:12:57.152Z,100784.88
2022-07-31T21:15:42.525Z,100773.94
2022-07-31T21:18:12.686Z,100771.88
2022-07-31T21:20:50.617Z,100771.47
2022-07-31T21:23:21.840Z,100761.25
2022-07-31T21:25:48.676Z,100761.91
2022-07-31T21:28:15.279Z,100765.75
2022-07-31T21:30:41.951Z,100764.22
2022-07-31T21:33:09.524Z,100768.22
2022-07-31T21:35:37.654Z,100772.09
2022-07-31T21:38:04.705Z,100765.34
2022-07-31T21:40:33.927Z,100771.84
2022-07-31T21:43:00.682Z,100772.59
2022-07-31T21:45:30.340Z,100777.06
2022-07-31T21:48:15.243Z,100790.25
2022-07-31T21:50:44.122Z,100795.75
2022-07-31T21:53:11.003Z,100803.22
2022-07-31T21:55:39.100Z,100799.38
2022-07-31T21:58:06.554Z,100801.44
2022-07-31T22:00:34.270Z,100796.97
2022-07-31T22:03:02.819Z,100803.16
2022-07-31T22:05:48.875Z,100797.00
2022-07-31T22:08:15.388Z,100798.72
2022-07-31T22:10:42.048Z,100792.31
2022-07-31T22:13:08.871Z,100793.97
2022-07-31T22:15:59.090Z,100790.75
2022-07-31T22:18:22.031Z,100799.09
2022-07-31T22:20:48.763Z,100796.16
2022-07-31T22:23:15.611Z,100804.56
2022-07-31T22:25:42.894Z,100795.72
2022-07-31T22:28:09.497Z,100807.91
2022-07-31T22:30:36.076Z,100798.47
2022-07-31T22:33:04.850Z,100807.28
2022-07-31T22:35:32.426Z,100799.53
2022-07-31T22:37:58.989Z,100807.06
2022-07-31T22:40:25.544Z,100806.16
2022-07-31T22:42:57.360Z,100812.31
2022-07-31T22:45:25.056Z,100805.91
2022-07-31T22:47:51.618Z,100814.06
2022-07-31T22:50:18.192Z,100818.03
2022-07-31T22:52:44.719Z,100819.31
2022-07-31T22:55:11.849Z,100821.34
2022-07-31T22:57:40.835Z,100832.06
2022-07-31T23:00:09.728Z,100829.94
2022-07-31T23:02:36.550Z,100823.34
2022-07-31T23:05:03.251Z,100825.25
2022-07-31T23:07:29.666Z,100832.81
2022-07-31T23:09:56.207Z,100825.72
2022-07-31T23:12:22.861Z,100819.66
2022-07-31T23:14:55.138Z,100820.88
2022-07-31T23:17:23.107Z,100821.88
2022-07-31T23:19:54.183Z,100822.53
2022-07-31T23:22:33.379Z,100823.63
2022-07-31T23:25:09.896Z,100811.38
2022-07-31T23:27:36.444Z,100807.25
2022-07-31T23:30:03.234Z,100820.22
2022-07-31T23:32:29.723Z,100814.97
2022-07-31T23:34:56.231Z,100819.75
2022-07-31T23:37:22.653Z,100826.19
2022-07-31T23:39:49.075Z,100831.19
2022-07-31T23:42:34.213Z,100823.09
2022-07-31T23:45:00.652Z,100815.34
2022-07-31T23:47:44.519Z,100809.94
2022-07-31T23:50:13.310Z,100803.28
2022-07-31T23:52:39.735Z,100797.50
2022-07-31T23:55:06.413Z,100813.53
2022-07-31T23:57:34.676Z,100812.31
